Back to Top

Language: 

My Weather Underground Personal Weather Station Historical Data with Graphs...

Delerius Weather Station Historical Data
Daily Summary for December 14, 2017 Units:  English    Metric   Both
« Previous Day
Next Day »
Daily Weekly Monthly Yearly Custom
  High: Low: Average:
Temperature: 40.8 °F 33.8 °F 37.9 °F
Dew Point: 36.9 °F 32.3 °F 35 °F
Humidity: 95 % 81 % 90 %
Wind Speed: 16.0 mph 0.0 mph 7.6 mph
Wind Gust: 29.0 mph - -
Wind:- - WSW
Pressure: 29.14 in 29.02 in -
Precipitation: 0.28 in    
Historical Graphs
 
 
Tabular Data for December 14, 2017
Time Temperature Dew Point Pressure Wind Wind Speed Wind Gust Humidity Rainfall Rate (Hourly) solar Conditions
00:02 36.1 °F 33.5 °F 29.11 in West 11.0 mph 19.0 mph 90 % 0.00 in 0 W/m2
00:12 36.3 °F 33.7 °F 29.11 in West 12.0 mph 21.0 mph 90 % 0.00 in 0 W/m2
00:18 36.3 °F 33.7 °F 29.11 in West 12.0 mph 20.0 mph 90 % 0.00 in 0 W/m2
00:23 36.5 °F 33.8 °F 29.11 in West 13.0 mph 19.0 mph 90 % 0.00 in 0 W/m2
00:33 36.7 °F 33.7 °F 29.12 in West 14.0 mph 23.0 mph 89 % 0.00 in 0 W/m2
00:38 36.5 °F 33.8 °F 29.12 in West 16.0 mph 29.0 mph 90 % 0.01 in 0 W/m2
00:43 36.1 °F 33.5 °F 29.12 in West 16.0 mph 25.0 mph 90 % 0.02 in 0 W/m2
00:48 35.8 °F 33.4 °F 29.12 in West 11.0 mph 15.0 mph 91 % 0.02 in 0 W/m2
00:53 35.8 °F 33.7 °F 29.12 in West 8.0 mph 14.0 mph 92 % 0.02 in 0 W/m2
00:58 35.8 °F 33.7 °F 29.13 in West 9.0 mph 13.0 mph 92 % 0.02 in 0 W/m2
01:03 35.8 °F 33.7 °F 29.13 in West 9.0 mph 14.0 mph 92 % 0.02 in 0 W/m2
01:08 36.0 °F 33.9 °F 29.12 in West 9.0 mph 12.0 mph 92 % 0.02 in 0 W/m2
01:18 36.0 °F 33.9 °F 29.12 in West 10.0 mph 15.0 mph 92 % 0.02 in 0 W/m2
01:28 35.8 °F 33.7 °F 29.12 in West 8.0 mph 11.0 mph 92 % 0.02 in 0 W/m2
01:34 35.8 °F 34.0 °F 29.13 in West 8.0 mph 11.0 mph 93 % 0.02 in 0 W/m2
01:39 36.0 °F 34.1 °F 29.13 in West 7.0 mph 13.0 mph 93 % 0.01 in 0 W/m2
01:54 36.1 °F 34.3 °F 29.13 in West 6.0 mph 10.0 mph 93 % 0.01 in 0 W/m2
02:04 36.0 °F 34.1 °F 29.13 in West 6.0 mph 11.0 mph 93 % 0.01 in 0 W/m2
02:09 35.8 °F 34.0 °F 29.13 in West 6.0 mph 13.0 mph 93 % 0.01 in 0 W/m2
02:14 36.0 °F 34.1 °F 29.13 in West 5.0 mph 10.0 mph 93 % 0.01 in 0 W/m2
02:24 36.3 °F 34.5 °F 29.13 in West 8.0 mph 15.0 mph 93 % 0.01 in 0 W/m2
02:29 36.5 °F 34.7 °F 29.13 in West 7.0 mph 12.0 mph 93 % 0.01 in 0 W/m2
02:34 36.7 °F 34.8 °F 29.13 in WNW 8.0 mph 13.0 mph 93 % 0.01 in 0 W/m2
02:39 36.7 °F 34.8 °F 29.13 in West 6.0 mph 11.0 mph 93 % 0.01 in 0 W/m2
02:44 36.7 °F 34.8 °F 29.13 in WSW 3.0 mph 7.0 mph 93 % 0.01 in 0 W/m2
02:49 36.9 °F 35.0 °F 29.13 in WNW 10.0 mph 15.0 mph 93 % 0.01 in 0 W/m2
02:54 36.9 °F 35.0 °F 29.13 in WNW 6.0 mph 12.0 mph 93 % 0.01 in 0 W/m2
02:59 37.0 °F 35.2 °F 29.13 in West 5.0 mph 12.0 mph 93 % 0.01 in 0 W/m2
03:04 37.0 °F 35.2 °F 29.12 in Calm   2.0 mph 93 % 0.01 in 0 W/m2
03:09 36.9 °F 35.0 °F 29.13 in Calm   2.0 mph 93 % 0.01 in 0 W/m2
03:15 36.7 °F 34.6 °F 29.13 in Calm     92 % 0.01 in 0 W/m2
03:20 36.7 °F 34.8 °F 29.13 in West 6.0 mph 13.0 mph 93 % 0.01 in 0 W/m2
03:21 36.7 °F 34.8 °F 29.13 in West 6.0 mph 13.0 mph 93 % 0.01 in 0 W/m2
03:24 36.7 °F 34.8 °F 29.13 in West 8.0 mph 14.0 mph 93 % 0.01 in 0 W/m2
03:26 36.9 °F 35.0 °F 29.13 in WNW 8.0 mph 11.0 mph 93 % 0.01 in 0 W/m2
03:31 37.0 °F 35.2 °F 29.13 in WNW 9.0 mph 15.0 mph 93 % 0.01 in 0 W/m2
03:36 37.0 °F 35.2 °F 29.14 in WNW 8.0 mph 13.0 mph 93 % 0.01 in 0 W/m2
03:41 37.2 °F 35.1 °F 29.14 in West 3.0 mph 7.0 mph 92 % 0.01 in 0 W/m2
03:46 37.2 °F 35.1 °F 29.14 in WNW 11.0 mph 16.0 mph 92 % 0.00 in 0 W/m2
03:56 37.6 °F 35.5 °F 29.13 in West 12.0 mph 23.0 mph 92 % 0.00 in 0 W/m2
04:06 37.2 °F 35.1 °F 29.13 in WNW 10.0 mph 16.0 mph 92 % 0.00 in 0 W/m2
04:16 36.9 °F 34.8 °F 29.13 in WNW 7.0 mph 11.0 mph 92 % 0.00 in 0 W/m2
04:21 36.7 °F 34.6 °F 29.13 in West 5.0 mph 8.0 mph 92 % 0.00 in 0 W/m2
04:24 36.5 °F 34.4 °F 29.13 in WNW 5.0 mph 7.0 mph 92 % 0.00 in 0 W/m2
04:26 36.3 °F 34.2 °F 29.13 in WNW 4.0 mph 8.0 mph 92 % 0.00 in 0 W/m2
04:30 36.3 °F 34.2 °F 29.13 in WNW 6.0 mph 10.0 mph 92 % 0.00 in 0 W/m2
04:31 36.3 °F 34.2 °F 29.13 in WNW 6.0 mph 10.0 mph 92 % 0.00 in 0 W/m2
04:36 36.1 °F 34.0 °F 29.13 in WNW 1.0 mph 5.0 mph 92 % 0.00 in 0 W/m2
04:41 36.0 °F 33.9 °F 29.13 in Calm   1.0 mph 92 % 0.00 in 0 W/m2
04:46 35.8 °F 33.7 °F 29.13 in Calm   1.0 mph 92 % 0.00 in 0 W/m2
04:51 35.6 °F 33.5 °F 29.13 in Calm     92 % 0.00 in 0 W/m2
04:56 35.2 °F 33.1 °F 29.13 in WNW 1.0 mph 4.0 mph 92 % 0.00 in 0 W/m2
04:59 35.2 °F 33.1 °F 29.13 in Calm   2.0 mph 92 % 0.00 in 0 W/m2
05:01 35.2 °F 33.1 °F 29.13 in Calm   3.0 mph 92 % 0.00 in 0 W/m2
05:06 35.1 °F 33.2 °F 29.14 in WSW 3.0 mph 9.0 mph 93 % 0.00 in 0 W/m2
05:09 35.2 °F 33.4 °F 29.13 in WSW 2.0 mph 7.0 mph 93 % 0.00 in 0 W/m2
05:11 35.4 °F 33.6 °F 29.14 in WSW 5.0 mph 8.0 mph 93 % 0.00 in 0 W/m2
05:16 35.6 °F 33.8 °F 29.14 in SW 5.0 mph 8.0 mph 93 % 0.00 in 0 W/m2
05:21 36.1 °F 34.3 °F 29.14 in SW 5.0 mph 9.0 mph 93 % 0.00 in 0 W/m2
05:22 36.1 °F 34.6 °F 29.14 in WSW 5.0 mph 9.0 mph 94 % 0.00 in 0 W/m2
05:26 36.5 °F 34.9 °F 29.14 in WSW 9.0 mph 12.0 mph 94 % 0.01 in 0 W/m2
05:31 36.9 °F 35.0 °F 29.14 in WSW 4.0 mph 8.0 mph 93 % 0.01 in 0 W/m2
05:36 36.9 °F 35.0 °F 29.14 in SW 6.0 mph 9.0 mph 93 % 0.01 in 0 W/m2
05:41 36.9 °F 35.0 °F 29.14 in SW 6.0 mph 10.0 mph 93 % 0.01 in 0 W/m2
05:46 36.9 °F 35.0 °F 29.14 in WSW 7.0 mph 10.0 mph 93 % 0.01 in 0 W/m2
05:51 36.7 °F 34.6 °F 29.14 in WSW 8.0 mph 11.0 mph 92 % 0.01 in 0 W/m2
05:54 36.5 °F 34.4 °F 29.14 in WSW 7.0 mph 12.0 mph 92 % 0.01 in 0 W/m2
05:57 36.3 °F 34.5 °F 29.14 in SW 4.0 mph 7.0 mph 93 % 0.01 in 0 W/m2
06:17 36.1 °F 34.3 °F 29.14 in WSW 7.0 mph 12.0 mph 93 % 0.02 in 0 W/m2
06:20 36.1 °F 34.3 °F 29.13 in WSW 5.0 mph 8.0 mph 93 % 0.02 in 0 W/m2
06:22 36.1 °F 34.3 °F 29.13 in WSW 2.0 mph 6.0 mph 93 % 0.02 in 0 W/m2
06:27 36.1 °F 34.3 °F 29.13 in West 4.0 mph 8.0 mph 93 % 0.01 in 0 W/m2
06:32 36.1 °F 34.3 °F 29.12 in WSW 2.0 mph 6.0 mph 93 % 0.01 in 0 W/m2
06:42 36.1 °F 34.3 °F 29.12 in WSW 4.0 mph 7.0 mph 93 % 0.01 in 0 W/m2
06:47 36.3 °F 34.5 °F 29.12 in WSW 5.0 mph 9.0 mph 93 % 0.01 in 0 W/m2
06:57 37.0 °F 35.5 °F 29.12 in West 8.0 mph 13.0 mph 94 % 0.01 in 0 W/m2
07:08 37.4 °F 35.6 °F 29.13 in WSW 9.0 mph 15.0 mph 93 % 0.01 in 0 W/m2
07:13 37.4 °F 35.6 °F 29.12 in West 9.0 mph 18.0 mph 93 % 0.01 in 0 W/m2
07:15 37.6 °F 35.7 °F 29.12 in West 8.0 mph 11.0 mph 93 % 0.01 in 0 W/m2
07:20 37.6 °F 35.7 °F 29.12 in West 8.0 mph 12.0 mph 93 % 0.01 in 0 W/m2
07:25 37.4 °F 35.6 °F 29.12 in West 5.0 mph 9.0 mph 93 % 0.01 in 0 W/m2
07:35 37.2 °F 35.4 °F 29.12 in WSW 6.0 mph 9.0 mph 93 % 0.01 in 0 W/m2
07:39 37.2 °F 35.1 °F 29.12 in West 6.0 mph 9.0 mph 92 % 0.01 in 0 W/m2
07:40 37.2 °F 35.1 °F 29.12 in West 6.0 mph 8.0 mph 92 % 0.01 in 0 W/m2
07:50 37.0 °F 34.9 °F 29.12 in WSW 3.0 mph 5.0 mph 92 % 0.01 in 0 W/m2
07:54 37.0 °F 35.2 °F 29.13 in WSW 2.0 mph 5.0 mph 93 % 0.01 in 0 W/m2
07:55 37.0 °F 35.2 °F 29.13 in WSW 2.0 mph 4.0 mph 93 % 0.01 in 0 W/m2
08:00 36.9 °F 35.0 °F 29.12 in WSW 1.0 mph 2.0 mph 93 % 0.01 in 0 W/m2
08:02 36.9 °F 35.0 °F 29.12 in WSW 1.0 mph 4.0 mph 93 % 0.01 in 0 W/m2
08:07 37.0 °F 35.2 °F 29.13 in West 10.0 mph 15.0 mph 93 % 0.01 in 0 W/m2
08:08 37.0 °F 35.2 °F 29.12 in WSW 8.0 mph 13.0 mph 93 % 0.01 in 0 W/m2
08:13 37.2 °F 35.4 °F 29.12 in SW 5.0 mph 8.0 mph 93 % 0.00 in 0 W/m2
08:18 37.4 °F 35.6 °F 29.12 in WSW 8.0 mph 11.0 mph 93 % 0.00 in 0 W/m2
08:23 37.6 °F 35.7 °F 29.12 in WSW 8.0 mph 16.0 mph 93 % 0.00 in 0 W/m2
08:28 37.8 °F 35.9 °F 29.12 in WSW 11.0 mph 19.0 mph 93 % 0.01 in 0 W/m2
08:29 37.8 °F 35.9 °F 29.13 in WSW 11.0 mph 19.0 mph 93 % 0.01 in 0 W/m2
08:33 37.9 °F 35.8 °F 29.13 in WSW 12.0 mph 21.0 mph 92 % 0.01 in 0 W/m2
08:38 37.9 °F 35.8 °F 29.13 in West 10.0 mph 15.0 mph 92 % 0.01 in 0 W/m2
08:43 37.8 °F 35.6 °F 29.13 in West 5.0 mph 10.0 mph 92 % 0.01 in 7 W/m2
08:48 37.8 °F 35.6 °F 29.13 in West 5.0 mph 6.0 mph 92 % 0.01 in 9 W/m2
08:50 37.8 °F 35.6 °F 29.13 in West 4.0 mph 7.0 mph 92 % 0.01 in 11 W/m2
08:53 37.6 °F 35.5 °F 29.13 in WSW 3.0 mph 8.0 mph 92 % 0.01 in 11 W/m2
08:58 37.6 °F 35.5 °F 29.13 in West 5.0 mph 7.0 mph 92 % 0.01 in 37 W/m2
09:03 37.8 °F 35.9 °F 29.13 in WSW 6.0 mph 11.0 mph 93 % 0.01 in 26 W/m2
09:08 37.9 °F 36.1 °F 29.13 in WSW 6.0 mph 10.0 mph 93 % 0.01 in 51 W/m2
09:13 37.9 °F 36.1 °F 29.13 in WSW 10.0 mph 15.0 mph 93 % 0.01 in 19 W/m2
09:17 38.1 °F 36.3 °F 29.13 in West 10.0 mph 15.0 mph 93 % 0.01 in 39 W/m2
09:18 38.1 °F 36.3 °F 29.13 in WSW 9.0 mph 12.0 mph 93 % 0.01 in 51 W/m2
09:23 38.1 °F 36.0 °F 29.13 in West 10.0 mph 18.0 mph 92 % 0.01 in 63 W/m2
09:28 38.1 °F 36.0 °F 29.13 in West 13.0 mph 21.0 mph 92 % 0.00 in 44 W/m2
09:30 38.1 °F 36.0 °F 29.13 in WSW 15.0 mph 25.0 mph 92 % 0.00 in 49 W/m2
09:33 38.1 °F 36.0 °F 29.13 in WSW 11.0 mph 14.0 mph 92 % 0.00 in 58 W/m2
09:38 38.1 °F 36.0 °F 29.13 in WSW 10.0 mph 15.0 mph 92 % 0.00 in 79 W/m2
09:44 38.1 °F 36.0 °F 29.13 in WSW 10.0 mph 16.0 mph 92 % 0.00 in 95 W/m2
09:49 38.3 °F 36.2 °F 29.13 in WSW 12.0 mph 20.0 mph 92 % 0.00 in 141 W/m2
09:54 38.7 °F 36.5 °F 29.12 in WSW 12.0 mph 20.0 mph 92 % 0.00 in 81 W/m2
09:58 38.7 °F 36.3 °F 29.12 in WSW 12.0 mph 19.0 mph 91 % 0.00 in 107 W/m2
09:59 38.7 °F 36.3 °F 29.12 in West 12.0 mph 19.0 mph 91 % 0.00 in 107 W/m2
10:04 39.0 °F 36.6 °F 29.12 in WSW 14.0 mph 20.0 mph 91 % 0.00 in 67 W/m2
10:08 39.0 °F 36.3 °F 29.12 in WSW 14.0 mph 20.0 mph 90 % 0.00 in 47 W/m2
10:09 39.0 °F 36.3 °F 29.12 in WSW 14.0 mph 24.0 mph 90 % 0.00 in 49 W/m2
10:14 39.0 °F 36.1 °F 29.12 in WSW 13.0 mph 20.0 mph 89 % 0.00 in 58 W/m2
10:19 39.0 °F 36.1 °F 29.12 in WSW 14.0 mph 23.0 mph 89 % 0.00 in 42 W/m2
10:24 39.0 °F 36.1 °F 29.12 in WSW 16.0 mph 24.0 mph 89 % 0.00 in 37 W/m2
10:29 39.0 °F 35.8 °F 29.12 in WSW 12.0 mph 19.0 mph 88 % 0.00 in 67 W/m2
10:34 39.2 °F 35.9 °F 29.12 in WSW 10.0 mph 19.0 mph 88 % 0.00 in 54 W/m2
10:35 39.2 °F 35.9 °F 29.12 in WSW 11.0 mph 19.0 mph 88 % 0.00 in 56 W/m2
10:37 39.2 °F 35.9 °F 29.12 in WSW 10.0 mph 18.0 mph 88 % 0.00 in 88 W/m2
10:42 39.4 °F 36.1 °F 29.12 in WSW 10.0 mph 16.0 mph 88 % 0.00 in 67 W/m2
10:47 39.4 °F 36.1 °F 29.12 in WSW 9.0 mph 15.0 mph 88 % 0.00 in 139 W/m2
10:50 39.4 °F 36.1 °F 29.12 in WSW 9.0 mph 14.0 mph 88 % 0.00 in 167 W/m2
10:55 39.7 °F 36.2 °F 29.12 in WSW 11.0 mph 16.0 mph 87 % 0.00 in 125 W/m2
11:00 39.9 °F 36.4 °F 29.12 in West 10.0 mph 18.0 mph 87 % 0.00 in 123 W/m2
11:04 40.1 °F 36.5 °F 29.11 in West 12.0 mph 20.0 mph 87 % 0.00 in 151 W/m2
11:05 40.1 °F 36.5 °F 29.12 in WSW 10.0 mph 16.0 mph 87 % 0.00 in 262 W/m2
11:10 40.5 °F 36.9 °F 29.11 in WSW 7.0 mph 11.0 mph 87 % 0.00 in 109 W/m2
11:15 40.5 °F 36.6 °F 29.11 in WSW 11.0 mph 22.0 mph 86 % 0.00 in 139 W/m2
11:17 40.5 °F 36.6 °F 29.11 in WSW 12.0 mph 22.0 mph 86 % 0.00 in 153 W/m2
11:20 40.5 °F 36.3 °F 29.11 in WSW 12.0 mph 21.0 mph 85 % 0.00 in 63 W/m2
11:25 40.3 °F 36.1 °F 29.11 in West 9.0 mph 19.0 mph 85 % 0.00 in 58 W/m2
11:30 40.1 °F 36.0 °F 29.11 in West 7.0 mph 10.0 mph 85 % 0.00 in 62 W/m2
11:35 39.9 °F 35.8 °F 29.10 in WSW 8.0 mph 12.0 mph 85 % 0.00 in 70 W/m2
11:39 39.9 °F 35.8 °F 29.10 in WSW 6.0 mph 9.0 mph 85 % 0.00 in 93 W/m2
11:40 39.9 °F 35.8 °F 29.10 in WSW 6.0 mph 11.0 mph 85 % 0.00 in 88 W/m2
11:42 39.9 °F 35.8 °F 29.11 in WSW 10.0 mph 16.0 mph 85 % 0.00 in 79 W/m2
11:47 39.9 °F 35.8 °F 29.10 in WSW 8.0 mph 15.0 mph 85 % 0.00 in 54 W/m2
11:52 40.3 °F 35.8 °F 29.10 in WSW 11.0 mph 14.0 mph 84 % 0.01 in 44 W/m2
11:53 40.3 °F 35.8 °F 29.10 in WSW 11.0 mph 14.0 mph 84 % 0.01 in 44 W/m2
11:58 40.3 °F 35.8 °F 29.10 in SW 7.0 mph 13.0 mph 84 % 0.01 in 32 W/m2
12:03 40.3 °F 35.8 °F 29.10 in SW 8.0 mph 20.0 mph 84 % 0.01 in 39 W/m2
12:08 40.3 °F 35.5 °F 29.10 in WSW 10.0 mph 20.0 mph 83 % 0.01 in 49 W/m2
12:13 40.3 °F 35.5 °F 29.09 in SW 8.0 mph 11.0 mph 83 % 0.01 in 58 W/m2
12:18 40.3 °F 35.5 °F 29.09 in SW 8.0 mph 16.0 mph 83 % 0.01 in 72 W/m2
12:23 40.1 °F 35.4 °F 29.09 in SW 8.0 mph 11.0 mph 83 % 0.01 in 81 W/m2
12:25 40.3 °F 35.8 °F 29.09 in SW 9.0 mph 15.0 mph 84 % 0.01 in 83 W/m2
12:28 40.1 °F 35.4 °F 29.09 in SW 9.0 mph 15.0 mph 83 % 0.01 in 88 W/m2
12:33 40.3 °F 35.5 °F 29.08 in SW 8.0 mph 11.0 mph 83 % 0.01 in 97 W/m2
12:38 40.3 °F 35.5 °F 29.08 in SW 10.0 mph 18.0 mph 83 % 0.01 in 104 W/m2
12:39 40.3 °F 35.5 °F 29.08 in SW 10.0 mph 18.0 mph 83 % 0.01 in 107 W/m2
12:49 40.5 °F 35.4 °F 29.08 in WSW 12.0 mph 16.0 mph 82 % 0.01 in 58 W/m2
12:55 40.5 °F 35.7 °F 29.08 in WSW 10.0 mph 13.0 mph 83 % 0.00 in 51 W/m2
13:00 40.3 °F 35.5 °F 29.08 in WSW 7.0 mph 10.0 mph 83 % 0.00 in 54 W/m2
13:05 40.3 °F 35.5 °F 29.08 in WSW 9.0 mph 13.0 mph 83 % 0.00 in 39 W/m2
13:10 40.1 °F 35.4 °F 29.08 in WSW 8.0 mph 11.0 mph 83 % 0.00 in 46 W/m2
13:15 40.1 °F 35.4 °F 29.08 in SW 8.0 mph 12.0 mph 83 % 0.00 in 62 W/m2
13:20 40.1 °F 35.4 °F 29.08 in SW 10.0 mph 15.0 mph 83 % 0.00 in 65 W/m2
13:25 40.3 °F 35.5 °F 29.07 in SW 9.0 mph 14.0 mph 83 % 0.00 in 67 W/m2
13:30 40.5 °F 35.4 °F 29.07 in WSW 11.0 mph 16.0 mph 82 % 0.00 in 70 W/m2
13:35 40.6 °F 35.6 °F 29.07 in SW 8.0 mph 13.0 mph 82 % 0.00 in 49 W/m2
13:40 40.6 °F 35.6 °F 29.07 in SW 9.0 mph 12.0 mph 82 % 0.00 in 58 W/m2
13:45 40.8 °F 35.7 °F 29.07 in SW 10.0 mph 14.0 mph 82 % 0.00 in 37 W/m2
13:50 40.8 °F 35.4 °F 29.07 in SW 10.0 mph 16.0 mph 81 % 0.00 in 37 W/m2
13:55 40.8 °F 35.4 °F 29.06 in WSW 8.0 mph 13.0 mph 81 % 0.00 in 42 W/m2
14:00 40.8 °F 35.4 °F 29.07 in SW 8.0 mph 14.0 mph 81 % 0.00 in 42 W/m2
14:05 40.8 °F 35.4 °F 29.06 in SSW 11.0 mph 18.0 mph 81 % 0.00 in 39 W/m2
14:08 40.8 °F 35.4 °F 29.06 in SSW 8.0 mph 12.0 mph 81 % 0.00 in 32 W/m2
14:10 40.8 °F 35.4 °F 29.06 in SW 10.0 mph 14.0 mph 81 % 0.00 in 30 W/m2
14:15 40.8 °F 35.4 °F 29.06 in SW 8.0 mph 12.0 mph 81 % 0.00 in 28 W/m2
14:25 40.6 °F 35.6 °F 29.06 in SW 7.0 mph 10.0 mph 82 % 0.00 in 32 W/m2
14:30 40.6 °F 35.6 °F 29.06 in SW 6.0 mph 9.0 mph 82 % 0.00 in 30 W/m2
14:31 40.6 °F 35.6 °F 29.06 in SW 6.0 mph 9.0 mph 82 % 0.00 in 30 W/m2
14:35 40.6 °F 35.6 °F 29.06 in SW 5.0 mph 9.0 mph 82 % 0.00 in 30 W/m2
14:40 40.6 °F 35.6 °F 29.06 in SW 6.0 mph 13.0 mph 82 % 0.00 in 26 W/m2
14:45 40.6 °F 35.6 °F 29.05 in SW 4.0 mph 6.0 mph 82 % 0.00 in 23 W/m2
14:50 40.6 °F 35.6 °F 29.05 in SW 6.0 mph 8.0 mph 82 % 0.00 in 19 W/m2
14:55 40.6 °F 35.6 °F 29.05 in SSW 6.0 mph 8.0 mph 82 % 0.00 in 25 W/m2
15:00 40.6 °F 35.6 °F 29.04 in SSW 9.0 mph 14.0 mph 82 % 0.00 in 28 W/m2
15:04 40.6 °F 35.6 °F 29.04 in SW 8.0 mph 11.0 mph 82 % 0.00 in 25 W/m2
15:05 40.6 °F 35.6 °F 29.04 in SW 7.0 mph 12.0 mph 82 % 0.00 in 21 W/m2
15:10 40.5 °F 35.4 °F 29.04 in SW 8.0 mph 11.0 mph 82 % 0.00 in 23 W/m2
15:15 40.5 °F 35.7 °F 29.04 in SW 9.0 mph 14.0 mph 83 % 0.00 in 23 W/m2
15:19 40.5 °F 35.7 °F 29.04 in SW 6.0 mph 9.0 mph 83 % 0.00 in 23 W/m2
15:21 40.5 °F 35.7 °F 29.04 in SW 7.0 mph 10.0 mph 83 % 0.00 in 23 W/m2
15:26 40.3 °F 35.5 °F 29.04 in SW 6.0 mph 9.0 mph 83 % 0.00 in 16 W/m2
15:29 40.3 °F 35.5 °F 29.04 in SW 7.0 mph 11.0 mph 83 % 0.00 in 9 W/m2
15:39 40.3 °F 35.5 °F 29.04 in SW 6.0 mph 8.0 mph 83 % 0.00 in 5 W/m2
15:44 40.3 °F 35.5 °F 29.04 in SW 7.0 mph 12.0 mph 83 % 0.00 in 0 W/m2
15:49 40.3 °F 35.5 °F 29.04 in WSW 7.0 mph 10.0 mph 83 % 0.00 in 0 W/m2
15:50 40.3 °F 35.5 °F 29.04 in SW 7.0 mph 14.0 mph 83 % 0.00 in 0 W/m2
15:55 40.5 °F 35.7 °F 29.04 in SW 8.0 mph 11.0 mph 83 % 0.00 in 0 W/m2
16:00 40.6 °F 35.9 °F 29.05 in WSW 10.0 mph 14.0 mph 83 % 0.00 in 0 W/m2
16:05 40.6 °F 35.9 °F 29.05 in WSW 9.0 mph 14.0 mph 83 % 0.00 in 0 W/m2
16:10 40.6 °F 35.9 °F 29.05 in WSW 9.0 mph 13.0 mph 83 % 0.00 in 0 W/m2
16:12 40.6 °F 35.9 °F 29.05 in SW 9.0 mph 14.0 mph 83 % 0.00 in 0 W/m2
16:17 40.8 °F 36.1 °F 29.05 in SW 8.0 mph 11.0 mph 83 % 0.00 in 0 W/m2
16:22 40.8 °F 35.7 °F 29.04 in SW 9.0 mph 14.0 mph 82 % 0.00 in 0 W/m2
16:27 40.8 °F 35.7 °F 29.04 in SW 9.0 mph 14.0 mph 82 % 0.00 in 0 W/m2
16:32 40.8 °F 36.1 °F 29.04 in SW 9.0 mph 14.0 mph 83 % 0.00 in 0 W/m2
16:34 40.8 °F 35.7 °F 29.03 in SW 10.0 mph 14.0 mph 82 % 0.00 in 0 W/m2
16:37 40.8 °F 36.1 °F 29.03 in SW 10.0 mph 14.0 mph 83 % 0.00 in 0 W/m2
16:42 40.8 °F 35.7 °F 29.03 in SSW 10.0 mph 14.0 mph 82 % 0.00 in 0 W/m2
16:47 40.8 °F 35.7 °F 29.02 in SSW 9.0 mph 18.0 mph 82 % 0.00 in 0 W/m2
16:52 40.6 °F 35.6 °F 29.03 in SSW 7.0 mph 11.0 mph 82 % 0.00 in 0 W/m2
16:57 40.6 °F 35.9 °F 29.03 in SSW 9.0 mph 12.0 mph 83 % 0.00 in 0 W/m2
16:59 40.6 °F 35.9 °F 29.03 in SSW 7.0 mph 10.0 mph 83 % 0.00 in 0 W/m2
17:04 40.5 °F 35.7 °F 29.03 in SW 9.0 mph 12.0 mph 83 % 0.00 in 0 W/m2
17:09 40.5 °F 36.0 °F 29.03 in SW 11.0 mph 18.0 mph 84 % 0.00 in 0 W/m2
17:14 40.5 °F 36.3 °F 29.03 in WSW 9.0 mph 13.0 mph 85 % 0.00 in 0 W/m2
17:18 40.3 °F 36.1 °F 29.04 in WSW 7.0 mph 11.0 mph 85 % 0.00 in 0 W/m2
17:22 40.3 °F 36.4 °F 29.04 in WSW 9.0 mph 16.0 mph 86 % 0.00 in 0 W/m2
17:27 39.9 °F 36.4 °F 29.04 in West 9.0 mph 13.0 mph 87 % 0.00 in 0 W/m2
17:32 39.7 °F 36.5 °F 29.05 in West 9.0 mph 13.0 mph 88 % 0.01 in 0 W/m2
17:39 39.2 °F 36.2 °F 29.06 in WNW 11.0 mph 24.0 mph 89 % 0.02 in 0 W/m2
17:45 38.5 °F 35.5 °F 29.06 in West 14.0 mph 21.0 mph 89 % 0.05 in 0 W/m2
17:48 38.1 °F 35.2 °F 29.07 in WNW 9.0 mph 15.0 mph 89 % 0.06 in 0 W/m2
17:50 37.8 °F 34.8 °F 29.05 in WNW 8.0 mph 15.0 mph 89 % 0.06 in 0 W/m2
17:55 36.9 °F 33.9 °F 29.05 in West 5.0 mph 8.0 mph 89 % 0.07 in 0 W/m2
18:01 36.3 °F 33.9 °F 29.05 in West 5.0 mph 8.0 mph 91 % 0.07 in 0 W/m2
18:06 36.1 °F 33.8 °F 29.05 in West 5.0 mph 8.0 mph 91 % 0.07 in 0 W/m2
18:11 36.0 °F 33.9 °F 29.05 in West 6.0 mph 9.0 mph 92 % 0.07 in 0 W/m2
18:16 36.0 °F 33.9 °F 29.05 in West 7.0 mph 11.0 mph 92 % 0.07 in 0 W/m2
18:17 36.0 °F 33.9 °F 29.05 in West 6.0 mph 11.0 mph 92 % 0.07 in 0 W/m2
18:22 35.8 °F 33.7 °F 29.05 in WNW 7.0 mph 10.0 mph 92 % 0.07 in 0 W/m2
18:27 36.0 °F 34.1 °F 29.06 in WNW 7.0 mph 10.0 mph 93 % 0.07 in 0 W/m2
18:30 36.0 °F 34.1 °F 29.06 in WNW 5.0 mph 8.0 mph 93 % 0.06 in 0 W/m2
18:35 36.0 °F 34.1 °F 29.06 in WNW 5.0 mph 8.0 mph 93 % 0.05 in 0 W/m2
18:40 35.8 °F 34.0 °F 29.06 in WNW 5.0 mph 8.0 mph 93 % 0.04 in 0 W/m2
18:44 35.8 °F 34.0 °F 29.06 in WNW 3.0 mph 5.0 mph 93 % 0.03 in 0 W/m2
18:49 35.8 °F 34.0 °F 29.06 in West 4.0 mph 8.0 mph 93 % 0.02 in 0 W/m2
18:54 35.8 °F 34.0 °F 29.06 in West 3.0 mph 6.0 mph 93 % 0.00 in 0 W/m2
18:59 35.8 °F 34.0 °F 29.06 in WSW 1.0 mph 4.0 mph 93 % 0.00 in 0 W/m2
19:01 35.6 °F 33.8 °F 29.06 in WSW 1.0 mph 2.0 mph 93 % 0.00 in 0 W/m2
19:06 35.4 °F 33.6 °F 29.06 in WSW 2.0 mph 4.0 mph 93 % 0.00 in 0 W/m2
19:10 35.4 °F 33.6 °F 29.06 in WSW 1.0 mph 2.0 mph 93 % 0.00 in 0 W/m2
19:15 35.2 °F 33.4 °F 29.07 in WNW 1.0 mph 4.0 mph 93 % 0.00 in 0 W/m2
19:20 35.1 °F 33.2 °F 29.07 in NW 2.0 mph 7.0 mph 93 % 0.00 in 0 W/m2
19:22 35.1 °F 33.2 °F 29.06 in NW 2.0 mph 6.0 mph 93 % 0.00 in 0 W/m2
19:25 35.1 °F 33.5 °F 29.07 in WNW 4.0 mph 9.0 mph 94 % 0.00 in 0 W/m2
19:30 35.4 °F 33.9 °F 29.06 in WNW 5.0 mph 10.0 mph 94 % 0.00 in 0 W/m2
19:34 35.8 °F 34.2 °F 29.07 in WNW 10.0 mph 14.0 mph 94 % 0.00 in 0 W/m2
19:39 36.1 °F 34.6 °F 29.07 in WNW 8.0 mph 13.0 mph 94 % 0.00 in 0 W/m2
19:44 36.5 °F 34.9 °F 29.07 in WNW 10.0 mph 16.0 mph 94 % 0.00 in 0 W/m2
19:49 36.7 °F 35.1 °F 29.07 in WNW 10.0 mph 13.0 mph 94 % 0.00 in 0 W/m2
19:54 36.9 °F 35.3 °F 29.07 in WNW 8.0 mph 15.0 mph 94 % 0.00 in 0 W/m2
19:59 37.0 °F 35.5 °F 29.07 in WNW 9.0 mph 14.0 mph 94 % 0.00 in 0 W/m2
20:04 37.0 °F 35.2 °F 29.07 in WNW 9.0 mph 15.0 mph 93 % 0.00 in 0 W/m2
20:09 37.2 °F 35.4 °F 29.07 in WNW 8.0 mph 13.0 mph 93 % 0.00 in 0 W/m2
20:14 37.2 °F 35.4 °F 29.07 in WNW 8.0 mph 14.0 mph 93 % 0.01 in 0 W/m2
20:19 37.4 °F 35.6 °F 29.08 in WNW 10.0 mph 15.0 mph 93 % 0.01 in 0 W/m2
20:24 37.6 °F 35.7 °F 29.08 in WNW 9.0 mph 14.0 mph 93 % 0.01 in 0 W/m2
20:27 37.6 °F 35.5 °F 29.08 in WNW 9.0 mph 15.0 mph 92 % 0.01 in 0 W/m2
20:32 37.8 °F 35.6 °F 29.08 in WNW 8.0 mph 13.0 mph 92 % 0.01 in 0 W/m2
20:37 37.8 °F 35.4 °F 29.08 in WNW 11.0 mph 21.0 mph 91 % 0.01 in 0 W/m2
20:42 37.9 °F 35.5 °F 29.08 in WNW 13.0 mph 20.0 mph 91 % 0.01 in 0 W/m2
20:52 38.1 °F 35.7 °F 29.09 in WNW 10.0 mph 14.0 mph 91 % 0.01 in 0 W/m2
20:57 37.9 °F 35.3 °F 29.08 in WNW 10.0 mph 15.0 mph 90 % 0.01 in 0 W/m2
21:02 37.8 °F 35.4 °F 29.08 in WNW 11.0 mph 16.0 mph 91 % 0.01 in 0 W/m2
21:07 37.6 °F 35.2 °F 29.09 in WNW 9.0 mph 14.0 mph 91 % 0.01 in 0 W/m2
21:12 37.4 °F 35.0 °F 29.09 in WNW 11.0 mph 15.0 mph 91 % 0.00 in 0 W/m2
21:17 37.4 °F 35.0 °F 29.09 in WNW 8.0 mph 11.0 mph 91 % 0.00 in 0 W/m2
21:22 37.4 °F 35.0 °F 29.09 in WNW 9.0 mph 14.0 mph 91 % 0.00 in 0 W/m2
21:27 37.2 °F 35.1 °F 29.09 in WNW 8.0 mph 14.0 mph 92 % 0.00 in 0 W/m2
21:32 37.2 °F 35.1 °F 29.09 in WNW 8.0 mph 12.0 mph 92 % 0.00 in 0 W/m2
21:37 37.2 °F 35.1 °F 29.09 in WNW 8.0 mph 13.0 mph 92 % 0.00 in 0 W/m2
21:42 37.0 °F 34.9 °F 29.09 in WNW 9.0 mph 14.0 mph 92 % 0.00 in 0 W/m2
21:47 37.0 °F 34.9 °F 29.09 in WNW 10.0 mph 14.0 mph 92 % 0.00 in 0 W/m2
21:57 37.0 °F 34.9 °F 29.09 in WNW 10.0 mph 16.0 mph 92 % 0.00 in 0 W/m2
22:02 37.2 °F 35.1 °F 29.10 in WNW 7.0 mph 10.0 mph 92 % 0.00 in 0 W/m2
22:07 37.2 °F 35.1 °F 29.10 in WNW 9.0 mph 13.0 mph 92 % 0.01 in 0 W/m2
22:12 37.4 °F 35.6 °F 29.10 in WNW 9.0 mph 15.0 mph 93 % 0.02 in 0 W/m2
22:17 37.2 °F 35.4 °F 29.10 in WNW 10.0 mph 19.0 mph 93 % 0.03 in 0 W/m2
22:23 37.0 °F 34.9 °F 29.10 in WNW 8.0 mph 14.0 mph 92 % 0.06 in 0 W/m2
22:28 36.9 °F 34.8 °F 29.10 in WNW 8.0 mph 12.0 mph 92 % 0.07 in 0 W/m2
22:33 36.5 °F 34.7 °F 29.11 in WNW 7.0 mph 11.0 mph 93 % 0.08 in 0 W/m2
22:38 36.1 °F 34.3 °F 29.11 in WNW 8.0 mph 12.0 mph 93 % 0.09 in 0 W/m2
22:48 35.4 °F 33.6 °F 29.11 in WNW 5.0 mph 8.0 mph 93 % 0.11 in 0 W/m2
22:53 35.2 °F 33.4 °F 29.11 in West 4.0 mph 7.0 mph 93 % 0.11 in 0 W/m2
22:58 35.1 °F 33.2 °F 29.11 in West 2.0 mph 5.0 mph 93 % 0.12 in 0 W/m2
23:03 34.7 °F 32.9 °F 29.11 in West 3.0 mph 5.0 mph 93 % 0.12 in 0 W/m2
23:08 34.3 °F 32.5 °F 29.11 in West 1.0 mph 2.0 mph 93 % 0.11 in 0 W/m2
23:13 34.2 °F 32.3 °F 29.11 in Calm   2.0 mph 93 % 0.11 in 0 W/m2
23:18 34.0 °F 32.4 °F 29.11 in West 2.0 mph 4.0 mph 94 % 0.09 in 0 W/m2
23:23 34.0 °F 32.4 °F 29.11 in West 2.0 mph 4.0 mph 94 % 0.07 in 0 W/m2
23:28 33.8 °F 32.3 °F 29.11 in WNW 5.0 mph 8.0 mph 94 % 0.06 in 0 W/m2
23:38 34.2 °F 32.9 °F 29.12 in WNW 6.0 mph 10.0 mph 95 % 0.03 in 0 W/m2
23:43 34.3 °F 33.1 °F 29.12 in WNW 6.0 mph 10.0 mph 95 % 0.02 in 0 W/m2
23:48 34.5 °F 33.2 °F 29.12 in WNW 9.0 mph 13.0 mph 95 % 0.02 in 0 W/m2
23:53 34.9 °F 33.6 °F 29.12 in WNW 8.0 mph 13.0 mph 95 % 0.02 in 0 W/m2
23:58 35.1 °F 33.8 °F 29.12 in WNW 9.0 mph 13.0 mph 95 % 0.02 in 0 W/m2
Delerius-Weather
Compliments of Weather Underground - 2.5 mb

Data updates at regular intervals.